createdAt,value
2019-01-09T00:02:18.170Z,8.29
2019-01-09T00:07:23.430Z,8.28
2019-01-09T00:12:28.780Z,8.50
2019-01-09T00:17:34.045Z,8.57
2019-01-09T00:22:39.360Z,8.60
2019-01-09T00:27:44.571Z,8.57
2019-01-09T00:32:49.835Z,8.41
2019-01-09T00:37:54.972Z,8.06
2019-01-09T00:43:00.460Z,8.06
2019-01-09T00:48:05.713Z,8.04
2019-01-09T00:53:10.985Z,7.93
2019-01-09T00:58:17.322Z,7.88
2019-01-09T01:03:40.168Z,7.92
2019-01-09T01:09:03.479Z,8.17
2019-01-09T01:14:32.521Z,8.40
2019-01-09T01:19:52.675Z,8.55
2019-01-09T01:25:23.021Z,8.49
2019-01-09T01:36:07.376Z,8.09
2019-01-09T01:41:32.205Z,8.03
2019-01-09T01:46:52.396Z,8.08
2019-01-09T01:52:10.771Z,8.10
2019-01-09T01:57:33.201Z,8.05
2019-01-09T02:03:06.442Z,7.96
2019-01-09T02:08:26.341Z,7.90
2019-01-09T02:13:46.645Z,7.93
2019-01-09T02:29:29.979Z,7.98
2019-01-09T02:34:35.308Z,8.12
2019-01-09T02:39:40.607Z,8.20
2019-01-09T02:44:45.968Z,8.20
2019-01-09T02:49:51.594Z,8.27
2019-01-09T03:06:09.376Z,8.35
2019-01-09T03:11:14.863Z,8.19
2019-01-09T03:21:31.550Z,8.15
2019-01-09T03:26:36.861Z,8.09
2019-01-09T03:42:17.362Z,8.23
2019-01-09T03:58:09.632Z,8.61
2019-01-09T04:03:14.935Z,8.67
2019-01-09T04:08:20.441Z,8.60
2019-01-09T04:13:25.642Z,8.49
2019-01-09T04:18:30.992Z,8.42
2019-01-09T04:23:36.278Z,8.41
2019-01-09T04:28:41.709Z,8.36
2019-01-09T04:33:47.013Z,8.24
2019-01-09T04:38:52.282Z,8.01
2019-01-09T04:43:57.602Z,7.84
2019-01-09T04:49:02.923Z,7.80
2019-01-09T04:54:08.091Z,7.77
2019-01-09T04:59:13.352Z,7.70
2019-01-09T05:04:18.581Z,7.81
2019-01-09T05:09:23.848Z,7.92
2019-01-09T05:14:29.234Z,7.87
2019-01-09T05:19:34.523Z,7.80
2019-01-09T05:24:39.811Z,7.75
2019-01-09T05:29:45.183Z,7.75
2019-01-09T05:34:50.523Z,7.81
2019-01-09T05:39:55.857Z,7.74
2019-01-09T05:45:01.142Z,7.70
2019-01-09T05:50:06.712Z,7.71
2019-01-09T05:55:11.944Z,7.70
2019-01-09T06:00:17.282Z,7.69
2019-01-09T06:05:23.428Z,7.66
2019-01-09T06:10:28.662Z,7.74
2019-01-09T06:15:33.931Z,7.77
2019-01-09T06:26:18.462Z,7.89
2019-01-09T06:31:23.715Z,7.81
2019-01-09T06:36:28.969Z,7.79
2019-01-09T06:41:34.281Z,7.87
2019-01-09T06:46:39.516Z,7.94
2019-01-09T06:51:44.822Z,7.93
2019-01-09T06:56:50.210Z,8.08
2019-01-09T07:01:55.469Z,8.11
2019-01-09T07:07:00.701Z,7.98
2019-01-09T07:12:05.914Z,8.01
2019-01-09T07:17:11.311Z,7.99
2019-01-09T07:22:16.760Z,7.89
2019-01-09T07:32:33.325Z,8.00
2019-01-09T07:37:45.045Z,7.99
2019-01-09T07:42:45.661Z,8.10
2019-01-09T07:47:51.087Z,8.18
2019-01-09T07:52:56.435Z,8.10
2019-01-09T07:58:01.676Z,8.09
2019-01-09T08:03:07.071Z,8.10
2019-01-09T08:08:12.386Z,8.15
2019-01-09T08:13:17.701Z,8.18
2019-01-09T08:18:23.286Z,8.28
2019-01-09T08:23:28.826Z,8.26
2019-01-09T08:28:34.229Z,7.99
2019-01-09T08:33:39.527Z,7.71
2019-01-09T08:38:44.885Z,7.51
2019-01-09T08:43:50.215Z,7.54
2019-01-09T08:48:55.505Z,7.62
2019-01-09T08:54:00.835Z,7.96
2019-01-09T08:59:07.105Z,8.25
2019-01-09T09:04:12.495Z,8.38
2019-01-09T09:09:18.705Z,8.43
2019-01-09T09:14:24.046Z,8.83
2019-01-09T09:19:29.454Z,8.79
2019-01-09T09:24:34.734Z,8.79
2019-01-09T09:29:40.112Z,9.67
2019-01-09T09:34:45.440Z,10.19
2019-01-09T09:39:50.750Z,10.21
2019-01-09T09:44:56.037Z,9.71
2019-01-09T09:50:01.346Z,9.92
2019-01-09T09:55:12.810Z,10.63
2019-01-09T10:00:18.054Z,11.24
2019-01-09T10:05:23.444Z,10.80
2019-01-09T10:10:28.711Z,10.09
2019-01-09T10:15:34.402Z,9.84
2019-01-09T10:20:39.736Z,9.49
2019-01-09T10:25:45.027Z,9.37
2019-01-09T10:30:50.505Z,9.57
2019-01-09T10:35:55.928Z,10.06
2019-01-09T10:41:01.275Z,10.36
2019-01-09T10:46:06.634Z,10.46
2019-01-09T10:51:11.976Z,10.30
2019-01-09T10:56:17.255Z,10.19
2019-01-09T11:01:22.642Z,9.96
2019-01-09T11:06:28.035Z,9.87
2019-01-09T11:11:33.431Z,9.88
2019-01-09T11:16:38.606Z,9.73
2019-01-09T11:21:43.845Z,9.64
2019-01-09T11:26:49.271Z,9.60
2019-01-09T11:31:54.656Z,9.73
2019-01-09T11:37:00.021Z,10.34
2019-01-09T11:42:05.622Z,10.64
2019-01-09T11:47:11.130Z,10.70
2019-01-09T11:52:16.510Z,10.41
2019-01-09T11:57:21.755Z,10.27
2019-01-09T12:02:27.001Z,10.65
2019-01-09T12:07:32.163Z,12.11
2019-01-09T12:12:37.713Z,11.98
2019-01-09T12:17:42.934Z,12.37
2019-01-09T12:22:48.975Z,11.59
2019-01-09T12:27:54.165Z,11.16
2019-01-09T12:32:59.870Z,10.96
2019-01-09T12:38:05.386Z,10.93
2019-01-09T12:43:10.750Z,10.69
2019-01-09T12:48:16.196Z,10.71
2019-01-09T12:53:21.647Z,11.12
2019-01-09T12:58:26.907Z,11.36
2019-01-09T13:03:32.407Z,10.88
2019-01-09T13:08:37.725Z,11.56
2019-01-09T13:13:43.106Z,11.57
2019-01-09T13:18:48.461Z,11.29
2019-01-09T13:23:53.886Z,11.01
2019-01-09T13:28:59.196Z,11.03
2019-01-09T13:34:04.732Z,11.90
2019-01-09T13:39:10.777Z,12.94
2019-01-09T13:44:16.281Z,13.39
2019-01-09T13:49:21.720Z,12.90
2019-01-09T13:54:27.085Z,12.29
2019-01-09T13:59:32.298Z,11.75
2019-01-09T14:04:37.617Z,11.22
2019-01-09T14:09:42.948Z,10.81
2019-01-09T14:14:48.423Z,10.55
2019-01-09T14:19:53.823Z,10.74
2019-01-09T14:24:59.156Z,11.18
2019-01-09T14:30:05.540Z,11.06
2019-01-09T14:35:10.967Z,10.60
2019-01-09T14:40:16.635Z,10.13
2019-01-09T14:45:22.310Z,10.01
2019-01-09T14:50:27.635Z,9.71
2019-01-09T14:55:33.053Z,9.48
2019-01-09T15:00:38.543Z,9.47
2019-01-09T15:05:45.966Z,9.44
2019-01-09T15:10:51.221Z,9.36
2019-01-09T15:15:56.803Z,9.34
2019-01-09T15:21:02.042Z,9.44
2019-01-09T15:26:07.647Z,9.35
2019-01-09T15:31:12.903Z,9.26
2019-01-09T15:36:18.699Z,9.02
2019-01-09T15:41:24.026Z,8.81
2019-01-09T15:46:29.272Z,8.49
2019-01-09T15:51:34.635Z,8.31
2019-01-09T15:56:39.960Z,8.43
2019-01-09T16:01:45.190Z,8.52
2019-01-09T16:06:53.739Z,8.66
2019-01-09T16:11:59.192Z,8.52
2019-01-09T16:17:04.757Z,8.39
2019-01-09T16:22:10.267Z,8.26
2019-01-09T16:27:15.806Z,7.88
2019-01-09T16:32:22.496Z,7.49
2019-01-09T16:37:27.920Z,7.29
2019-01-09T16:42:33.436Z,7.19
2019-01-09T16:47:38.737Z,7.22
2019-01-09T16:52:44.116Z,7.36
2019-01-09T16:57:49.596Z,7.27
2019-01-09T17:02:55.142Z,7.10
2019-01-09T17:08:00.496Z,7.02
2019-01-09T17:13:06.523Z,7.00
2019-01-09T17:18:12.057Z,6.98
2019-01-09T17:23:17.479Z,6.96
2019-01-09T17:28:23.017Z,6.93
2019-01-09T17:33:28.519Z,6.83
2019-01-09T17:38:34.893Z,6.78
2019-01-09T17:43:40.537Z,6.78
2019-01-09T17:48:46.542Z,6.87
2019-01-09T17:53:52.037Z,7.03
2019-01-09T17:58:57.591Z,7.12
2019-01-09T18:04:03.103Z,7.19
2019-01-09T18:09:10.111Z,6.99
2019-01-09T18:14:15.557Z,6.85
2019-01-09T18:19:21.018Z,6.81
2019-01-09T18:24:26.575Z,6.77
2019-01-09T18:29:31.937Z,6.72
2019-01-09T18:34:48.251Z,6.76
2019-01-09T18:40:19.660Z,6.74
2019-01-09T18:45:44.959Z,6.78
2019-01-09T18:51:20.620Z,6.79
2019-01-09T18:56:26.250Z,6.77
2019-01-09T19:01:36.789Z,6.77
2019-01-09T19:06:42.144Z,6.80
2019-01-09T19:47:47.564Z,6.77
2019-01-09T20:12:44.380Z,7.36
2019-01-09T20:18:35.305Z,7.67
2019-01-09T20:36:51.247Z,6.36
2019-01-09T20:54:37.290Z,5.45
2019-01-09T21:00:52.865Z,5.32
2019-01-09T21:41:35.385Z,3.97
2019-01-09T21:47:11.668Z,3.90
2019-01-09T21:52:33.661Z,3.81
2019-01-09T21:57:55.897Z,3.57
2019-01-09T22:03:30.132Z,3.35
2019-01-09T22:09:15.884Z,3.13
